Nina — ICMG — position and weather

sailwx.info

Track history (hours):
 
Tides and Currents Weather Stations Pressure Air Temp Water Temp Dewpoint Dewpoint Depression Visibility Wind Speed Wind Dir Waves Ship Positions

Nina

Last reported at 2018-Apr-18 12:38 UTC. Time now 2018-Apr-24 16:27 UTC.
Position N 36°45' E 034°42'.

Length 180 m; draft 9.3 m.

Type: Tanker. MMSI: 247239700.

Date/timePositionNaut miles runAvg speedWind from/ knotsBaromVisibWave heightAir tempDewpointWater temp
2018-Apr-18 12:38N 36°45' E 034°42'1 0.1
2018-Apr-17 17:02N 36°43' E 034°42'012.0
2018-Apr-17 17:01N 36°43' E 034°42'8014.3
2018-Apr-17 11:26N 35°23' E 034°40'761123.2
2018-Apr-17 05:16N 41°54' E 048°36'7452883.5
2018-Apr-17 05:00N 43°47' E 031°52'6101014.1
2018-Apr-17 04:24N 33°47' E 034°10'513.7
2018-Apr-17 04:01N 33°41' E 034°09'713.9
2018-Apr-17 03:30N 33°35' E 034°07'714.1
2018-Apr-17 03:01N 33°28' E 034°06'714.2
2018-Apr-17 02:31N 33°21' E 034°04'714.0
2018-Apr-17 02:01N 33°14' E 034°02'813.8
2018-Apr-17 01:27N 33°07' E 033°60'510.4
2018-Apr-17 01:00N 33°03' E 034°03'713.7
2018-Apr-17 00:30N 33°02' E 034°11'713.7
2018-Apr-17 00:00N 33°00' E 034°19'713.9
2018-Apr-16 23:30N 32°59' E 034°27'713.8
2018-Apr-16 23:01N 32°58' E 034°35'  
2018-Apr-14 06:55N 32°58' E 034°21'613.4
2018-Apr-14 06:31N 32°59' E 034°14'813.4
2018-Apr-14 05:56N 33°00' E 034°05'613.5
2018-Apr-14 05:28N 33°02' E 033°58'12615.6
2018-Apr-13 21:22N 34°14' E 031°53'1848.7
2018-Apr-13 21:00N 33°56' E 031°56'8613.9
2018-Apr-13 14:49N 34°37' E 030°24'413.4
2018-Apr-13 14:30N 34°39' E 030°20'4813.2
2018-Apr-13 10:51N 35°01' E 029°27'412.9
2018-Apr-13 10:30N 35°03' E 029°22'1913.0
2018-Apr-13 09:04N 35°12' E 029°03'213.1
2018-Apr-13 08:54N 35°13' E 029°00'19712.5
2018-Apr-12 17:11N 37°21' E 025°55'213.2
2018-Apr-12 17:00N 37°24' E 025°53'  
2018-Apr-09 22:26N 37°36' E 025°54'612.8
2018-Apr-09 22:00N 37°30' E 025°54'  
Track history (hours):
 
Tides and Currents Weather Stations Pressure Air Temp Water Temp Dewpoint Dewpoint Depression Visibility Wind Speed Wind Dir Waves Ship Positions

Nina

Last reported at 2018-Apr-18 12:38 UTC. Time now 2018-Apr-24 16:27 UTC.
Position N 36°45' E 034°42'.

Length 180 m; draft 9.3 m.

Type: Tanker. MMSI: 247239700.

Date/timePositionNaut miles runAvg speedWind from/ knotsBaromVisibWave heightAir tempDewpointWater temp
2018-Apr-18 12:38N 36°45' E 034°42'1 0.1
2018-Apr-17 17:02N 36°43' E 034°42'012.0
2018-Apr-17 17:01N 36°43' E 034°42'8014.3
2018-Apr-17 11:26N 35°23' E 034°40'761123.2
2018-Apr-17 05:16N 41°54' E 048°36'7452883.5
2018-Apr-17 05:00N 43°47' E 031°52'6101014.1
2018-Apr-17 04:24N 33°47' E 034°10'513.7
2018-Apr-17 04:01N 33°41' E 034°09'713.9
2018-Apr-17 03:30N 33°35' E 034°07'714.1
2018-Apr-17 03:01N 33°28' E 034°06'714.2
2018-Apr-17 02:31N 33°21' E 034°04'714.0
2018-Apr-17 02:01N 33°14' E 034°02'813.8
2018-Apr-17 01:27N 33°07' E 033°60'510.4
2018-Apr-17 01:00N 33°03' E 034°03'713.7
2018-Apr-17 00:30N 33°02' E 034°11'713.7
2018-Apr-17 00:00N 33°00' E 034°19'713.9
2018-Apr-16 23:30N 32°59' E 034°27'713.8
2018-Apr-16 23:01N 32°58' E 034°35'  
2018-Apr-14 06:55N 32°58' E 034°21'613.4
2018-Apr-14 06:31N 32°59' E 034°14'813.4
2018-Apr-14 05:56N 33°00' E 034°05'613.5
2018-Apr-14 05:28N 33°02' E 033°58'12615.6
2018-Apr-13 21:22N 34°14' E 031°53'1848.7
2018-Apr-13 21:00N 33°56' E 031°56'8613.9
2018-Apr-13 14:49N 34°37' E 030°24'413.4
2018-Apr-13 14:30N 34°39' E 030°20'4813.2
2018-Apr-13 10:51N 35°01' E 029°27'412.9
2018-Apr-13 10:30N 35°03' E 029°22'1913.0
2018-Apr-13 09:04N 35°12' E 029°03'213.1
2018-Apr-13 08:54N 35°13' E 029°00'19712.5
2018-Apr-12 17:11N 37°21' E 025°55'213.2
2018-Apr-12 17:00N 37°24' E 025°53'  
2018-Apr-09 22:26N 37°36' E 025°54'612.8
2018-Apr-09 22:00N 37°30' E 025°54'  

Dump ship's entire track history